Time;durP1;ratioP1;P1;durP2;ratioP2;P2;SDS_P1;SDS_P2;PMS_P1;PMS_P2;Temp;Humidity;BMP_temperature;BMP_pressure;BME280_temperature;BME280_humidity;BME280_pressure;Samples;Min_cycle;Max_cycle;Signal;HPM_P1;HPM_P2
2022/05/18 00:02:23;;;;;;;5.72;2.25;;;19.60;91.10;;;;;;4999659;28;20046;-83
2022/05/18 00:04:48;;;;;;;3.10;2.10;;;19.50;91.00;;;;;;4984813;28;20158;-83
2022/05/18 00:07:14;;;;;;;4.95;2.53;;;19.50;91.10;;;;;;4980082;28;20145;-82
2022/05/18 00:09:39;;;;;;;7.53;2.75;;;19.50;91.80;;;;;;4982194;28;20040;-82
2022/05/18 00:12:05;;;;;;;4.25;2.45;;;19.40;91.90;;;;;;4967109;28;20096;-82
2022/05/18 00:14:31;;;;;;;2.83;1.88;;;19.40;91.80;;;;;;4986053;28;20643;-82
2022/05/18 00:16:58;;;;;;;2.25;1.52;;;19.40;91.50;;;;;;4982967;28;20034;-82
2022/05/18 00:19:24;;;;;;;3.60;1.92;;;19.40;91.30;;;;;;4972253;28;20034;-82
2022/05/18 00:21:49;;;;;;;4.70;1.98;;;19.50;91.60;;;;;;4982638;28;20026;-82
2022/05/18 00:24:15;;;;;;;7.05;2.50;;;19.50;91.50;;;;;;4985203;28;20367;-82
2022/05/18 00:26:41;;;;;;;5.43;2.28;;;19.40;91.60;;;;;;4996913;28;20030;-82
2022/05/18 00:29:07;;;;;;;4.03;2.13;;;19.30;91.80;;;;;;4968167;28;20019;-83
2022/05/18 00:31:32;;;;;;;3.72;2.20;;;19.20;91.90;;;;;;4978800;28;20030;-83
2022/05/18 00:33:58;;;;;;;3.28;2.30;;;19.20;92.10;;;;;;4979182;28;20030;-83
2022/05/18 00:36:23;;;;;;;5.43;2.25;;;19.30;91.80;;;;;;4987659;28;20485;-83
2022/05/18 00:38:49;;;;;;;5.60;2.47;;;19.20;91.80;;;;;;4979820;28;20035;-83
2022/05/18 00:41:19;;;;;;;3.63;1.90;;;19.20;91.70;;;;;;4965236;28;20030;-82
2022/05/18 00:43:44;;;;;;;3.78;2.50;;;19.10;91.80;;;;;;4985922;28;20037;-82
2022/05/18 00:46:12;;;;;;;5.93;2.10;;;19.10;92.60;;;;;;4994518;28;20049;-82
2022/05/18 00:48:38;;;;;;;2.85;1.98;;;19.00;92.00;;;;;;4975917;28;20464;-83
2022/05/18 00:51:06;;;;;;;4.32;2.38;;;19.00;92.20;;;;;;4981899;28;20038;-83
2022/05/18 00:53:56;;;;;;;3.85;2.00;;;19.10;92.30;;;;;;4996153;28;20030;-83
2022/05/18 00:56:35;;;;;;;4.50;2.47;;;19.00;92.50;;;;;;4999558;28;20506;-83
2022/05/18 00:59:04;;;;;;;4.80;2.30;;;19.00;92.20;;;;;;4983599;28;20025;-83
2022/05/18 01:01:30;;;;;;;5.93;2.05;;;19.10;92.50;;;;;;4983144;28;20370;-83
2022/05/18 01:03:55;;;;;;;6.05;2.58;;;19.00;92.50;;;;;;4984614;28;20023;-83
2022/05/18 01:06:32;;;;;;;2.33;2.13;;;19.00;92.60;;;;;;4999511;28;20030;-82
2022/05/18 01:09:23;;;;;;;4.38;2.22;;;19.00;92.40;;;;;;4968420;28;20064;-83
2022/05/18 01:11:49;;;;;;;4.80;2.20;;;18.80;92.90;;;;;;5002500;28;20030;-82
2022/05/18 01:14:21;;;;;;;7.15;2.45;;;18.80;92.90;;;;;;4984601;28;20052;-83
2022/05/18 01:16:47;;;;;;;4.38;2.00;;;18.90;92.80;;;;;;4984846;28;20049;-83
2022/05/18 01:19:36;;;;;;;2.42;1.80;;;18.80;92.70;;;;;;4992018;28;20522;-82
2022/05/18 01:22:16;;;;;;;2.33;2.03;;;18.80;92.90;;;;;;4991500;28;20383;-83
2022/05/18 01:24:49;;;;;;;4.75;2.03;;;18.80;93.00;;;;;;4995838;28;20034;-82
2022/05/18 01:27:14;;;;;;;2.60;1.98;;;18.70;93.40;;;;;;4983177;28;20030;-83
2022/05/18 01:29:40;;;;;;;2.30;1.85;;;18.80;93.40;;;;;;4997455;28;20049;-82
2022/05/18 01:32:06;;;;;;;3.50;1.92;;;18.80;93.40;;;;;;4995397;28;20026;-83
2022/05/18 01:34:33;;;;;;;4.25;1.83;;;18.80;93.20;;;;;;4985365;28;20117;-82
2022/05/18 01:36:58;;;;;;;3.50;2.17;;;18.80;93.20;;;;;;4999518;28;20478;-82
2022/05/18 01:39:28;;;;;;;5.05;2.15;;;18.70;93.20;;;;;;4984555;28;20033;-82
2022/05/18 01:42:02;;;;;;;2.47;2.13;;;18.60;93.60;;;;;;5011129;28;20034;-83
2022/05/18 01:44:28;;;;;;;3.17;2.15;;;18.70;94.00;;;;;;4997482;28;20505;-82
2022/05/18 01:46:53;;;;;;;4.30;2.60;;;18.60;93.50;;;;;;4982944;28;20022;-82
2022/05/18 01:49:19;;;;;;;2.97;2.13;;;18.80;94.10;;;;;;4985860;28;20029;-83
2022/05/18 01:51:47;;;;;;;6.28;2.40;;;18.60;93.80;;;;;;4985154;28;20037;-83
2022/05/18 01:54:13;;;;;;;7.68;2.80;;;18.60;93.60;;;;;;4970310;28;20030;-82
2022/05/18 01:56:38;;;;;;;3.90;2.20;;;18.50;93.80;;;;;;4997849;28;20033;-82
2022/05/18 01:59:04;;;;;;;4.43;2.08;;;18.50;94.10;;;;;;4967673;28;20084;-83
2022/05/18 02:01:29;;;;;;;4.30;2.03;;;18.50;93.80;;;;;;4995452;28;20490;-83
2022/05/18 02:03:55;;;;;;;5.95;2.33;;;18.50;94.00;;;;;;4979951;28;20077;-82
2022/05/18 02:06:20;;;;;;;5.32;2.58;;;18.60;93.90;;;;;;4969051;28;20037;-82
2022/05/18 02:08:46;;;;;;;3.17;2.15;;;18.60;94.40;;;;;;4996790;28;20507;-82
2022/05/18 02:11:16;;;;;;;4.32;1.95;;;18.50;94.40;;;;;;4984256;28;20499;-83
2022/05/18 02:13:42;;;;;;;2.33;2.03;;;18.50;94.10;;;;;;4986043;28;20066;-82
2022/05/18 02:16:09;;;;;;;5.10;2.45;;;18.50;94.40;;;;;;4981786;28;20052;-82
2022/05/18 02:18:34;;;;;;;3.70;2.38;;;18.50;94.20;;;;;;4985378;28;20030;-83
2022/05/18 02:21:04;;;;;;;4.20;2.13;;;18.50;94.80;;;;;;4994163;28;20031;-82
2022/05/18 02:23:29;;;;;;;3.53;2.47;;;18.50;94.70;;;;;;4983080;28;20042;-83
2022/05/18 02:25:55;;;;;;;6.45;2.67;;;18.40;94.70;;;;;;4985459;28;20030;-82
2022/05/18 02:28:20;;;;;;;4.30;2.25;;;18.40;94.80;;;;;;4984723;28;20060;-82
2022/05/18 02:30:46;;;;;;;5.43;3.33;;;18.40;94.70;;;;;;4969047;28;20026;-82
2022/05/18 02:33:11;;;;;;;3.30;2.55;;;18.40;95.00;;;;;;4986109;28;20022;-83
2022/05/18 02:35:40;;;;;;;4.18;2.53;;;18.30;94.70;;;;;;4989356;28;20030;-83
2022/05/18 02:38:06;;;;;;;4.28;3.58;;;18.40;94.70;;;;;;4998565;28;20034;-82
2022/05/18 02:40:32;;;;;;;4.53;2.35;;;18.40;94.90;;;;;;4998575;28;20049;-82
2022/05/18 02:42:57;;;;;;;4.75;2.28;;;18.40;95.10;;;;;;4983947;28;20030;-81
2022/05/18 02:45:23;;;;;;;3.25;2.35;;;18.30;94.80;;;;;;4990061;28;20033;-81
2022/05/18 02:47:48;;;;;;;3.17;2.03;;;18.30;95.30;;;;;;4998315;28;20041;-82
2022/05/18 02:50:14;;;;;;;5.07;2.80;;;18.40;95.20;;;;;;5000102;28;20034;-80
2022/05/18 02:52:39;;;;;;;5.97;2.22;;;18.30;95.60;;;;;;4985540;28;20034;-81
2022/05/18 02:57:50;;;;;;;5.07;2.20;;;18.30;95.50;;;;;;4998927;28;20175;-80
2022/05/18 03:00:16;;;;;;;7.10;2.90;;;18.20;95.40;;;;;;4985223;28;20113;-80
2022/05/18 03:02:41;;;;;;;6.60;2.67;;;18.20;96.00;;;;;;4997012;28;20038;-80
2022/05/18 03:05:07;;;;;;;4.70;2.40;;;18.20;96.00;;;;;;4994189;28;20035;-80
2022/05/18 03:07:32;;;;;;;3.88;2.17;;;18.10;96.10;;;;;;4986307;28;20042;-80
2022/05/18 03:09:58;;;;;;;5.10;2.50;;;18.10;95.80;;;;;;4981951;28;20034;-80
2022/05/18 03:12:23;;;;;;;5.45;2.45;;;18.20;96.20;;;;;;4998875;28;20026;-80
2022/05/18 03:14:55;;;;;;;5.05;2.63;;;18.10;95.90;;;;;;4981714;28;20034;-80
2022/05/18 03:17:20;;;;;;;5.22;2.08;;;18.10;96.30;;;;;;4982641;28;20049;-80
2022/05/18 03:19:46;;;;;;;4.43;2.35;;;18.20;95.80;;;;;;4985042;28;20074;-80
2022/05/18 03:24:55;;;;;;;5.90;2.28;;;18.10;96.40;;;;;;4997860;28;20092;-80
2022/05/18 03:27:21;;;;;;;5.43;2.83;;;18.10;96.40;;;;;;4965498;28;20058;-79
2022/05/18 03:29:47;;;;;;;2.45;2.20;;;18.10;96.40;;;;;;4982516;28;20034;-79
2022/05/18 03:32:12;;;;;;;3.88;2.50;;;18.10;96.50;;;;;;4981463;28;20058;-79
2022/05/18 03:34:38;;;;;;;8.00;2.83;;;18.00;96.40;;;;;;4983366;28;20373;-80
2022/05/18 03:37:03;;;;;;;6.40;2.40;;;18.10;96.90;;;;;;4983299;28;20029;-79
2022/05/18 03:39:29;;;;;;;3.65;2.50;;;18.10;96.80;;;;;;4965586;28;20490;-79
2022/05/18 03:41:55;;;;;;;3.75;2.20;;;18.00;96.70;;;;;;4984417;28;20022;-79
2022/05/18 03:44:21;;;;;;;6.70;2.60;;;18.10;96.70;;;;;;4995761;28;20032;-80
2022/05/18 03:46:46;;;;;;;2.78;2.33;;;18.00;96.70;;;;;;4969358;28;20386;-80
2022/05/18 03:49:12;;;;;;;6.45;2.05;;;18.00;96.90;;;;;;4996298;28;20034;-80
2022/05/18 03:51:38;;;;;;;4.43;2.58;;;18.00;97.00;;;;;;4996137;28;20088;-79
2022/05/18 03:54:04;;;;;;;3.35;2.58;;;18.10;97.40;;;;;;4997473;28;20026;-79
2022/05/18 03:56:30;;;;;;;6.68;3.03;;;18.00;96.70;;;;;;4998676;28;20382;-79
2022/05/18 03:58:55;;;;;;;5.15;2.60;;;18.00;97.10;;;;;;4967637;28;20053;-80
2022/05/18 04:01:21;;;;;;;3.72;2.45;;;18.00;97.20;;;;;;4982673;28;20091;-80
2022/05/18 04:03:47;;;;;;;4.72;2.80;;;18.00;97.20;;;;;;4970544;28;20130;-80
2022/05/18 04:06:13;;;;;;;2.13;1.92;;;18.00;97.60;;;;;;4997545;28;20399;-80
2022/05/18 04:08:39;;;;;;;3.53;2.78;;;18.10;97.00;;;;;;4984694;28;20073;-81
2022/05/18 04:11:05;;;;;;;5.32;2.35;;;18.00;97.40;;;;;;4983995;28;20477;-79
2022/05/18 04:13:32;;;;;;;5.00;2.20;;;18.10;97.50;;;;;;4986736;28;20045;-80
2022/05/18 04:15:57;;;;;;;3.42;2.42;;;18.10;97.30;;;;;;4982579;28;20505;-79
2022/05/18 04:18:23;;;;;;;3.13;2.35;;;18.20;97.00;;;;;;4998412;28;20029;-80
2022/05/18 04:20:52;;;;;;;5.85;2.88;;;18.20;97.00;;;;;;4961761;28;20050;-80
2022/05/18 04:23:18;;;;;;;6.10;2.75;;;18.30;96.80;;;;;;4998081;28;20033;-80
2022/05/18 04:25:43;;;;;;;6.22;2.83;;;18.20;97.40;;;;;;4982021;28;20046;-80
2022/05/18 04:28:12;;;;;;;5.03;2.60;;;18.30;97.60;;;;;;4969683;28;20494;-80
2022/05/18 04:30:38;;;;;;;4.10;2.65;;;18.50;96.80;;;;;;4998304;28;20174;-80
2022/05/18 04:33:04;;;;;;;4.68;2.60;;;18.50;97.10;;;;;;4968934;28;20114;-79
2022/05/18 04:35:29;;;;;;;5.97;2.60;;;18.60;97.10;;;;;;5000571;28;20033;-80
2022/05/18 04:37:55;;;;;;;4.93;2.55;;;18.70;96.50;;;;;;4967232;28;20394;-79
2022/05/18 04:40:21;;;;;;;4.30;2.83;;;18.80;96.50;;;;;;4995131;28;20505;-80
2022/05/18 04:42:47;;;;;;;5.03;2.80;;;18.90;96.50;;;;;;4999154;28;20181;-80
2022/05/18 04:45:14;;;;;;;3.72;2.55;;;18.90;96.60;;;;;;4979993;28;20126;-80
2022/05/18 04:47:39;;;;;;;6.50;2.47;;;19.00;96.00;;;;;;4996024;28;20045;-80
2022/05/18 04:50:06;;;;;;;4.28;2.70;;;19.10;96.30;;;;;;4996617;28;20033;-80
2022/05/18 04:52:31;;;;;;;3.95;2.78;;;19.20;95.40;;;;;;4986415;28;20033;-81
2022/05/18 04:54:57;;;;;;;4.32;2.10;;;19.30;95.50;;;;;;4984965;28;20041;-80
2022/05/18 04:57:22;;;;;;;7.03;2.33;;;19.40;95.90;;;;;;4999354;28;20050;-80
2022/05/18 04:59:48;;;;;;;3.63;2.58;;;19.50;95.20;;;;;;4962248;28;20026;-81
2022/05/18 05:02:14;;;;;;;5.68;3.10;;;19.60;95.50;;;;;;4981540;28;20506;-80
2022/05/18 05:04:40;;;;;;;7.38;2.65;;;19.80;94.90;;;;;;4964863;28;20058;-81
2022/05/18 05:07:05;;;;;;;4.72;2.17;;;19.70;94.80;;;;;;4979310;28;20026;-82
2022/05/18 05:09:31;;;;;;;4.25;2.58;;;19.80;94.60;;;;;;4996755;28;20060;-81
2022/05/18 05:11:56;;;;;;;3.03;1.95;;;19.90;94.90;;;;;;4969406;28;20386;-81
2022/05/18 05:14:22;;;;;;;4.30;2.47;;;19.90;94.40;;;;;;4978538;28;20042;-81
2022/05/18 05:16:48;;;;;;;6.13;2.20;;;20.10;94.30;;;;;;4983162;28;20042;-81
2022/05/18 05:19:14;;;;;;;3.25;2.58;;;20.20;94.40;;;;;;5000430;28;20388;-81
2022/05/18 05:21:42;;;;;;;3.42;2.40;;;20.40;94.30;;;;;;4993725;28;20030;-81
2022/05/18 05:24:11;;;;;;;3.80;2.45;;;20.50;93.80;;;;;;4967029;28;20038;-81
2022/05/18 05:26:37;;;;;;;3.78;2.25;;;20.60;93.60;;;;;;4966439;28;20031;-80
2022/05/18 05:29:02;;;;;;;4.20;2.53;;;20.60;93.60;;;;;;4981890;28;20041;-80
2022/05/18 05:31:28;;;;;;;4.65;2.17;;;20.70;93.70;;;;;;4998632;28;20372;-80
2022/05/18 05:33:53;;;;;;;4.15;2.25;;;20.80;93.40;;;;;;4965907;28;20053;-80
2022/05/18 05:36:19;;;;;;;3.30;2.20;;;21.10;93.10;;;;;;4982427;28;20049;-81
2022/05/18 05:38:45;;;;;;;6.30;2.40;;;21.10;93.40;;;;;;4984014;28;20038;-80
2022/05/18 05:41:11;;;;;;;2.75;2.20;;;21.10;93.00;;;;;;4983990;28;20547;-81
2022/05/18 05:43:36;;;;;;;5.30;2.55;;;21.30;92.60;;;;;;4962969;28;20121;-82
2022/05/18 05:46:06;;;;;;;5.45;1.95;;;21.30;92.60;;;;;;4984484;28;20390;-81
2022/05/18 05:48:32;;;;;;;3.60;2.47;;;21.50;92.40;;;;;;4984561;28;20057;-81
2022/05/18 05:50:59;;;;;;;2.72;2.08;;;21.60;92.30;;;;;;4983496;28;21012;-81
2022/05/18 05:53:25;;;;;;;4.20;2.33;;;21.70;92.00;;;;;;4998373;28;20123;-82
2022/05/18 05:55:51;;;;;;;2.17;1.98;;;21.70;92.10;;;;;;4995473;28;20042;-82
2022/05/18 05:58:17;;;;;;;3.63;1.92;;;22.10;91.90;;;;;;4982584;28;20108;-80
2022/05/18 06:00:43;;;;;;;3.10;1.85;;;22.20;92.00;;;;;;4977827;28;20073;-82
2022/05/18 06:03:08;;;;;;;2.38;1.63;;;22.50;92.10;;;;;;4973629;28;20112;-83
2022/05/18 06:05:34;;;;;;;3.00;1.80;;;22.90;91.40;;;;;;4966511;28;20042;-82
2022/05/18 06:07:59;;;;;;;6.20;1.92;;;22.80;91.40;;;;;;4975533;28;20042;-82
2022/05/18 06:10:25;;;;;;;2.20;1.95;;;23.10;92.00;;;;;;4979321;28;20038;-82
2022/05/18 06:12:50;;;;;;;4.35;2.00;;;23.00;90.80;;;;;;4992092;28;20715;-82
2022/05/18 06:15:16;;;;;;;2.75;2.20;;;23.10;90.70;;;;;;4994181;28;20034;-82
2022/05/18 06:17:41;;;;;;;4.60;2.15;;;23.30;90.70;;;;;;4984995;28;20537;-82
2022/05/18 06:20:07;;;;;;;4.07;1.90;;;23.50;90.50;;;;;;4998505;28;20045;-82
2022/05/18 06:22:33;;;;;;;2.25;1.95;;;23.60;90.20;;;;;;4981205;28;20038;-82
2022/05/18 06:24:58;;;;;;;4.32;1.95;;;23.70;89.80;;;;;;4977604;28;20466;-82
2022/05/18 06:27:24;;;;;;;4.28;2.50;;;24.00;89.20;;;;;;4986800;28;20414;-83
2022/05/18 06:29:49;;;;;;;3.15;2.03;;;24.20;89.50;;;;;;4979068;28;20030;-83
2022/05/18 06:32:15;;;;;;;2.80;1.88;;;24.40;89.30;;;;;;4980810;28;20021;-83
2022/05/18 06:34:41;;;;;;;4.63;2.33;;;24.50;88.30;;;;;;4985240;28;20344;-82
2022/05/18 06:37:07;;;;;;;3.58;1.70;;;24.30;86.20;;;;;;4965047;28;20034;-82
2022/05/18 06:39:32;;;;;;;3.97;1.83;;;24.20;86.70;;;;;;4964638;28;20580;-83
2022/05/18 06:41:58;;;;;;;3.03;1.40;;;24.80;86.10;;;;;;4984245;28;20037;-83
2022/05/18 06:44:24;;;;;;;4.47;1.70;;;25.00;86.90;;;;;;4983744;28;20022;-83
2022/05/18 06:46:50;;;;;;;4.90;1.95;;;25.10;84.60;;;;;;4967483;28;20502;-83
2022/05/18 06:49:16;;;;;;;9.63;2.08;;;25.20;82.70;;;;;;4984405;28;20030;-82
2022/05/18 06:51:42;;;;;;;4.00;1.63;;;25.40;85.20;;;;;;4978565;28;20050;-83
2022/05/18 06:54:08;;;;;;;3.78;1.77;;;25.80;83.20;;;;;;4968416;28;20060;-83
2022/05/18 06:56:36;;;;;;;3.72;1.90;;;26.00;89.00;;;;;;4983778;28;20038;-83
2022/05/18 06:59:02;;;;;;;2.83;1.60;;;25.70;81.50;;;;;;4964824;28;20498;-83
2022/05/18 07:01:28;;;;;;;4.22;1.70;;;25.80;85.80;;;;;;4999364;28;20030;-84
2022/05/18 07:03:54;;;;;;;3.40;1.83;;;25.80;81.60;;;;;;4995955;28;20093;-84
2022/05/18 07:06:22;;;;;;;1.95;1.55;;;25.80;81.10;;;;;;4985361;28;20494;-84
2022/05/18 07:08:48;;;;;;;2.88;1.50;;;26.00;81.80;;;;;;4977036;28;20030;-83
2022/05/18 07:11:14;;;;;;;4.40;1.90;;;26.20;84.50;;;;;;5000847;28;20120;-85
2022/05/18 07:13:39;;;;;;;2.63;1.73;;;26.60;89.40;;;;;;5001231;28;20125;-85
2022/05/18 07:16:08;;;;;;;1.50;1.30;;;26.70;80.80;;;;;;4983755;28;20080;-86
2022/05/18 07:18:34;;;;;;;3.63;2.67;;;26.80;80.70;;;;;;4966590;28;20030;-83
2022/05/18 07:21:03;;;;;;;3.45;1.73;;;26.60;80.80;;;;;;4965539;28;20144;-85
2022/05/18 07:23:28;;;;;;;2.50;1.88;;;26.90;84.00;;;;;;5002294;28;20077;-85
2022/05/18 07:25:54;;;;;;;4.00;1.52;;;27.30;78.70;;;;;;4971183;28;20426;-85
2022/05/18 07:28:20;;;;;;;3.75;1.65;;;27.20;79.30;;;;;;4986135;28;20375;-85
2022/05/18 07:30:46;;;;;;;4.10;2.55;;;27.50;79.30;;;;;;5015634;28;20040;-86
2022/05/18 07:33:12;;;;;;;2.63;1.70;;;27.60;77.40;;;;;;4988232;28;20157;-85
2022/05/18 07:35:37;;;;;;;3.08;1.48;;;27.70;77.00;;;;;;4989245;28;20028;-85
2022/05/18 07:38:09;;;;;;;6.82;1.83;;;27.60;77.10;;;;;;4970575;28;20272;-86
2022/05/18 07:40:36;;;;;;;3.70;1.75;;;28.00;77.30;;;;;;4990531;28;20065;-86
2022/05/18 07:43:02;;;;;;;3.53;1.70;;;28.00;75.70;;;;;;4989104;28;20532;-85
2022/05/18 07:45:28;;;;;;;3.63;1.58;;;28.10;76.00;;;;;;4985439;28;20042;-86
2022/05/18 07:47:54;;;;;;;2.28;1.70;;;28.10;75.90;;;;;;4985856;28;20038;-85
2022/05/18 07:50:23;;;;;;;4.22;2.35;;;28.40;75.10;;;;;;4971909;28;20057;-85
2022/05/18 07:52:51;;;;;;;1.67;1.58;;;28.40;72.90;;;;;;4983394;28;20042;-84
2022/05/18 07:55:17;;;;;;;2.58;1.42;;;28.50;75.70;;;;;;4970830;28;20449;-85
2022/05/18 07:57:44;;;;;;;6.40;1.85;;;28.80;74.90;;;;;;4985713;28;20058;-84
2022/05/18 08:00:10;;;;;;;3.80;1.50;;;28.80;72.80;;;;;;4982562;28;20045;-83
2022/05/18 08:02:37;;;;;;;3.45;1.52;;;28.80;73.40;;;;;;4980696;28;20037;-83
2022/05/18 08:05:03;;;;;;;4.85;1.42;;;29.20;71.00;;;;;;4984393;28;20037;-82
2022/05/18 08:07:29;;;;;;;2.38;1.75;;;29.10;69.90;;;;;;5000941;28;20033;-83
2022/05/18 08:15:26;;;;;;;2.22;1.35;;;29.60;69.50;;;;;;4984977;28;20390;-81
2022/05/18 08:17:52;;;;;;;3.88;1.52;;;29.40;67.40;;;;;;4983426;28;20132;-81
2022/05/18 08:20:20;;;;;;;5.45;1.60;;;29.50;68.60;;;;;;4983386;28;20092;-81
2022/05/18 08:22:47;;;;;;;6.22;1.83;;;29.70;68.30;;;;;;4982188;28;20472;-80
2022/05/18 08:25:13;;;;;;;2.65;1.40;;;30.10;73.30;;;;;;4999894;28;20034;-79
2022/05/18 08:27:48;;;;;;;3.00;1.65;;;30.30;69.40;;;;;;4984878;28;20532;-79
2022/05/18 08:30:20;;;;;;;3.00;1.50;;;30.50;68.30;;;;;;4962586;28;20486;-78
2022/05/18 08:32:46;;;;;;;1.95;1.33;;;30.40;66.40;;;;;;4989798;28;20038;-79
2022/05/18 08:35:16;;;;;;;2.70;1.48;;;30.90;71.20;;;;;;4982550;28;20076;-78
2022/05/18 08:37:44;;;;;;;2.08;1.42;;;31.00;68.30;;;;;;4987254;28;20184;-78
2022/05/18 08:40:29;;;;;;;3.78;1.70;;;30.80;65.90;;;;;;5002970;28;20425;-79
2022/05/18 08:43:07;;;;;;;4.07;1.75;;;30.60;65.50;;;;;;5011046;28;20034;-78
2022/05/18 08:45:37;;;;;;;3.38;1.70;;;30.80;68.50;;;;;;4997830;28;20026;-78
2022/05/18 08:48:39;;;;;;;3.38;1.98;;;31.20;68.50;;;;;;4982985;28;20069;-78
2022/05/18 08:51:16;;;;;;;5.43;1.63;;;31.40;63.40;;;;;;4923148;29;20023;-78
2022/05/18 08:53:49;;;;;;;2.95;1.70;;;31.30;62.10;;;;;;4986832;28;20162;-78
2022/05/18 08:56:23;;;;;;;3.10;1.67;;;31.50;62.00;;;;;;4980911;28;20439;-78
2022/05/18 08:58:51;;;;;;;2.55;1.50;;;31.80;63.20;;;;;;4986437;28;20514;-78
2022/05/18 09:01:22;;;;;;;7.78;1.63;;;31.80;60.50;;;;;;4998840;28;20041;-78
2022/05/18 09:03:58;;;;;;;3.88;1.77;;;31.70;60.80;;;;;;4989802;28;20034;-78
2022/05/18 09:06:31;;;;;;;3.20;1.40;;;31.90;60.80;;;;;;4970076;28;20030;-78
2022/05/18 09:11:57;;;;;;;6.60;1.83;;;32.40;65.30;;;;;;4994889;28;20041;-77
2022/05/18 09:14:24;;;;;;;2.65;1.98;;;32.70;63.60;;;;;;4994050;28;20143;-77
2022/05/18 09:17:11;;;;;;;2.30;1.48;;;32.90;63.70;;;;;;4982728;28;20026;-77
2022/05/18 09:19:54;;;;;;;4.22;1.70;;;32.90;63.00;;;;;;4990508;28;20448;-77
2022/05/18 09:22:38;;;;;;;4.90;1.60;;;33.10;63.50;;;;;;5001146;28;20034;-77
2022/05/18 09:25:35;;;;;;;2.08;1.85;;;33.20;58.90;;;;;;5008518;28;20046;-76
2022/05/18 09:28:08;;;;;;;3.15;1.60;;;33.40;59.20;;;;;;4996889;28;20033;-77
2022/05/18 09:30:39;;;;;;;1.65;1.52;;;33.50;60.70;;;;;;4984940;28;20493;-77
2022/05/18 09:33:18;;;;;;;6.40;2.00;;;33.60;59.80;;;;;;5008077;28;20034;-77
2022/05/18 09:35:53;;;;;;;1.75;1.50;;;33.70;61.80;;;;;;4992371;28;20041;-77
2022/05/18 09:38:50;;;;;;;1.65;1.55;;;33.90;58.50;;;;;;4996558;28;20023;-77
2022/05/18 09:41:17;;;;;;;2.67;2.10;;;34.00;59.20;;;;;;4982987;28;20039;-77
2022/05/18 09:43:49;;;;;;;2.85;1.60;;;33.90;56.60;;;;;;4980853;28;20120;-77
2022/05/18 09:46:18;;;;;;;3.92;1.95;;;34.20;55.70;;;;;;4998897;28;20034;-77
2022/05/18 09:49:14;;;;;;;3.58;1.65;;;34.20;56.60;;;;;;4975272;28;20657;-76
2022/05/18 09:51:40;;;;;;;5.32;1.70;;;34.40;54.60;;;;;;4996190;28;20046;-77
2022/05/18 09:54:06;;;;;;;2.00;1.30;;;34.50;56.80;;;;;;4969802;28;20037;-77
2022/05/18 09:57:06;;;;;;;1.85;1.50;;;34.60;56.80;;;;;;4964533;28;20490;-77
2022/05/18 09:59:41;;;;;;;2.83;1.58;;;34.60;58.10;;;;;;4996047;28;20420;-76
2022/05/18 10:07:48;;;;;;;3.38;1.60;;;35.20;54.20;;;;;;4993553;28;20087;-76
2022/05/18 10:10:34;;;;;;;2.35;2.15;;;35.10;55.70;;;;;;4973949;28;20457;-77
2022/05/18 10:13:07;;;;;;;4.20;1.67;;;35.30;57.10;;;;;;4982595;28;20169;-77
2022/05/18 10:15:36;;;;;;;4.68;1.70;;;35.50;57.40;;;;;;4966334;28;20026;-76
2022/05/18 10:18:41;;;;;;;2.72;1.60;;;35.50;56.40;;;;;;4996611;28;20030;-77
2022/05/18 10:21:20;;;;;;;1.85;1.75;;;35.80;56.10;;;;;;4993282;28;20045;-76
2022/05/18 10:23:52;;;;;;;2.10;1.40;;;36.00;53.90;;;;;;4998752;28;20041;-76
2022/05/18 10:26:22;;;;;;;2.17;1.40;;;35.90;54.60;;;;;;5000840;28;20478;-78
2022/05/18 10:28:55;;;;;;;2.33;1.95;;;36.20;52.10;;;;;;4994497;28;20034;-76
2022/05/18 10:31:30;;;;;;;2.30;1.63;;;36.50;51.40;;;;;;4981478;28;20036;-77
2022/05/18 10:34:12;;;;;;;2.13;1.40;;;36.60;51.50;;;;;;4989814;28;20137;-77
2022/05/18 10:36:43;;;;;;;1.73;1.42;;;36.70;51.70;;;;;;4967057;28;20031;-78
2022/05/18 10:39:10;;;;;;;2.70;1.42;;;36.70;53.00;;;;;;4965367;28;20491;-77
2022/05/18 10:41:44;;;;;;;3.88;1.52;;;36.70;51.90;;;;;;4964736;28;20072;-77
2022/05/18 10:44:20;;;;;;;2.13;1.50;;;36.80;49.50;;;;;;4998911;28;20044;-77
2022/05/18 10:46:50;;;;;;;3.42;1.48;;;36.80;50.10;;;;;;4982390;28;20034;-77
2022/05/18 10:49:34;;;;;;;1.90;1.70;;;36.70;53.00;;;;;;4997386;28;20033;-77
2022/05/18 10:52:24;;;;;;;2.13;1.42;;;37.00;52.90;;;;;;4987103;28;20070;-77
2022/05/18 10:54:58;;;;;;;2.60;1.80;;;37.20;50.50;;;;;;4983092;28;20045;-77
2022/05/18 10:57:36;;;;;;;2.65;1.60;;;37.20;51.20;;;;;;4984157;28;20054;-77
2022/05/18 11:00:15;;;;;;;1.75;1.23;;;37.50;50.70;;;;;;4994746;28;20033;-77
2022/05/18 11:03:05;;;;;;;3.28;1.50;;;37.30;51.60;;;;;;4997986;28;20034;-77
2022/05/18 11:05:42;;;;;;;2.67;1.52;;;37.30;48.50;;;;;;4997847;28;20038;-77
2022/05/18 11:08:14;;;;;;;3.45;1.90;;;37.70;47.30;;;;;;4996887;28;20502;-77
2022/05/18 11:11:06;;;;;;;2.42;1.88;;;37.80;49.90;;;;;;4980199;28;20038;-77
2022/05/18 11:13:38;;;;;;;7.30;2.10;;;37.80;50.10;;;;;;4997930;28;20065;-78
2022/05/18 11:16:12;;;;;;;5.57;1.77;;;37.90;49.70;;;;;;4308625;28;10000329;-78
2022/05/18 11:18:58;;;;;;;1.92;1.67;;;37.90;48.50;;;;;;4987708;28;20769;-77
2022/05/18 11:21:39;;;;;;;6.15;1.80;;;38.10;48.40;;;;;;4980519;28;20137;-77
2022/05/18 11:24:18;;;;;;;5.22;1.50;;;38.10;47.80;;;;;;4986368;28;20371;-77
2022/05/18 11:27:17;;;;;;;3.10;1.40;;;38.40;46.20;;;;;;4994083;28;20037;-78
2022/05/18 11:30:01;;;;;;;1.73;1.50;;;38.30;48.00;;;;;;4983504;28;20038;-78
2022/05/18 11:32:32;;;;;;;1.88;1.67;;;38.30;47.30;;;;;;4997514;28;20397;-77
2022/05/18 11:35:19;;;;;;;2.25;1.80;;;38.40;48.10;;;;;;4993859;28;20389;-77
2022/05/18 11:37:54;;;;;;;2.15;1.50;;;38.80;45.10;;;;;;4976933;28;20035;-77
2022/05/18 11:40:40;;;;;;;1.35;1.25;;;39.20;44.80;;;;;;4995556;28;20669;-77
2022/05/18 11:43:28;;;;;;;2.17;1.40;;;38.90;44.90;;;;;;4997552;28;20402;-77
2022/05/18 11:46:25;;;;;;;4.70;1.30;;;38.90;43.80;;;;;;4999671;28;20038;-77
2022/05/18 11:49:00;;;;;;;3.65;1.50;;;39.30;45.10;;;;;;4993823;28;20613;-77
2022/05/18 11:51:32;;;;;;;2.45;1.52;;;39.30;43.60;;;;;;4995671;28;20374;-77
2022/05/18 11:54:02;;;;;;;1.80;1.40;;;39.40;42.20;;;;;;4999062;28;20030;-77
2022/05/18 11:56:37;;;;;;;1.98;1.17;;;39.10;43.80;;;;;;4995954;28;20559;-78
2022/05/18 11:59:57;;;;;;;1.85;1.48;;;39.30;43.90;;;;;;4997997;28;20389;-77
2022/05/18 12:02:54;;;;;;;2.88;1.40;;;39.50;44.90;;;;;;4973539;28;20034;-77
2022/05/18 12:05:42;;;;;;;7.65;1.95;;;39.40;45.10;;;;;;4974904;28;20034;-78
2022/05/18 12:08:45;;;;;;;2.03;1.25;;;39.30;43.90;;;;;;4995307;28;20038;-77
2022/05/18 12:11:48;;;;;;;1.38;1.08;;;39.50;45.00;;;;;;5012461;28;20022;-77
2022/05/18 12:14:36;;;;;;;3.17;1.30;;;39.80;42.60;;;;;;5001736;28;20101;-78
2022/05/18 12:17:09;;;;;;;2.20;1.42;;;39.90;42.80;;;;;;4996168;28;20037;-77
2022/05/18 12:19:41;;;;;;;1.20;1.10;;;40.20;42.10;;;;;;4998163;28;20022;-77
2022/05/18 12:22:16;;;;;;;2.25;1.40;;;40.00;41.30;;;;;;5008634;28;20394;-77
2022/05/18 12:24:44;;;;;;;4.07;1.40;;;40.10;42.60;;;;;;4999412;28;20125;-77
2022/05/18 12:27:10;;;;;;;5.00;1.60;;;40.20;42.30;;;;;;4999293;28;20383;-77
2022/05/18 12:29:35;;;;;;;3.35;1.63;;;40.40;42.10;;;;;;4985342;28;20056;-77
2022/05/18 12:32:01;;;;;;;1.33;1.20;;;40.20;43.20;;;;;;4987088;28;20409;-76
2022/05/18 12:34:41;;;;;;;3.08;1.73;;;40.10;43.00;;;;;;4986159;28;20178;-77
2022/05/18 12:37:12;;;;;;;4.53;2.22;;;40.10;43.20;;;;;;4967152;28;20080;-77
2022/05/18 12:39:44;;;;;;;2.72;1.42;;;40.20;42.40;;;;;;4996291;28;20030;-77
2022/05/18 12:42:14;;;;;;;1.70;1.27;;;40.50;42.00;;;;;;4981816;28;20097;-77
2022/05/18 12:44:43;;;;;;;4.05;1.80;;;40.40;41.60;;;;;;4981907;28;20137;-77
2022/05/18 12:47:39;;;;;;;1.52;1.40;;;40.60;39.30;;;;;;4985530;28;20556;-78
2022/05/18 12:50:16;;;;;;;2.03;1.40;;;41.00;39.40;;;;;;4991658;28;20362;-77
2022/05/18 12:53:01;;;;;;;1.52;1.00;;;40.80;41.30;;;;;;4997192;28;20023;-77
2022/05/18 12:55:44;;;;;;;2.60;1.25;;;40.70;39.50;;;;;;4983408;28;20217;-77
2022/05/18 12:58:10;;;;;;;3.92;1.40;;;40.90;41.00;;;;;;4972152;28;20363;-77
2022/05/18 13:00:46;;;;;;;2.17;1.42;;;40.80;41.20;;;;;;4997962;28;20049;-77
2022/05/18 13:03:12;;;;;;;2.35;1.73;;;40.90;40.10;;;;;;4981328;28;20030;-77
2022/05/18 13:05:42;;;;;;;3.03;1.35;;;40.80;40.70;;;;;;4999503;28;20398;-78
2022/05/18 13:08:19;;;;;;;2.40;1.42;;;40.90;40.70;;;;;;4970805;28;20398;-76
2022/05/18 13:11:09;;;;;;;3.85;1.65;;;40.90;41.80;;;;;;4995416;28;20373;-77
2022/05/18 13:13:56;;;;;;;1.80;1.27;;;41.20;39.70;;;;;;4995810;28;20084;-77
2022/05/18 13:16:37;;;;;;;3.65;1.08;;;41.70;37.60;;;;;;4982282;28;20081;-78
2022/05/18 13:19:18;;;;;;;3.15;1.85;;;41.80;37.40;;;;;;4997671;28;20425;-77
2022/05/18 13:21:54;;;;;;;2.75;1.23;;;41.90;39.10;;;;;;4995594;28;20089;-78
2022/05/18 13:24:23;;;;;;;3.30;1.35;;;41.50;40.40;;;;;;4997632;28;20034;-78